Sioux City, Iowa
Current Conditions -  °F | °C
As of 10:28 AM on Monday 22 Dec 2014 (Local Time) from KSUX Reporting Station
Light Rain Light Rain  
Wind Chill: 35°   Ceiling: 600
Heat Index: 43°   Visibility: 2mi
Dew Point: 41°   Wind: 16mph
Humidity: 93%   Direction: 160°SSE
Pressure: 29.48"   Gusts: NA
Location:  42.5°N, 96.42°W
Report Text: KSUX 221628Z 16014KT 2SM -RA BR BKN006 OVC009 06/05 A2948 RMK AO2 CIG 004V008 P0000 T00610050
Loading
Personal Weather Stations






























Interactive Weather Map New forecast layout! Learn more

10-Day Weather Forecast

Advertisements
Track Severe Weather on mobile